MSC Gina — 3FLY9 — position and weather

sailwx.info

Track history (hours):
 
Tides and Currents Weather Stations Pressure Air Temp Water Temp Dewpoint Dewpoint Depression Visibility Wind Speed Wind Dir Waves Ship Positions

MSC Gina

Last reported at 2016-Feb-07 05:34 UTC. Time now 2016-Feb-09 03:19 UTC.
Position N 35°60' W 005°05'.

Length 259 m; draft 9.8 m.

Type: Ship (hazmat cat A). MMSI: 357542000.

Date/timePositionNaut miles runAvg speedWind from/ knotsBaromVisibWave heightAir tempDewpointWater temp
2016-Feb-07 05:34N 35°60' W 005°05'1716.8
2016-Feb-07 04:34N 35°57' W 005°26'1817.4
2016-Feb-07 03:30N 35°54' W 005°48'1516.0
2016-Feb-07 02:34N 35°53' W 006°07'11714.1
2016-Feb-06 18:15N 36°00' W 008°32'1115.1
2016-Feb-06 17:33N 36°02' W 008°44'1313.1
2016-Feb-06 16:33N 36°05' W 009°00'1514.6
2016-Feb-06 15:30N 36°09' W 009°18'1414.2
2016-Feb-06 14:30N 36°13' W 009°35'1313.8
2016-Feb-06 13:33N 36°16' W 009°51'1614.3
2016-Feb-06 12:27N 36°19' W 010°10'1213.7
2016-Feb-06 11:33N 36°22' W 010°25'1514.3
2016-Feb-06 10:30N 36°25' W 010°44'71114.0
2016-Feb-04 07:33N 39°09' W 025°19'4719.0
2016-Feb-04 05:04N 39°20' W 026°19'1019.4
2016-Feb-04 04:33N 39°22' W 026°31'1919.0
2016-Feb-04 03:33N 39°26' W 026°55'1919.1
2016-Feb-04 02:34N 39°31' W 027°19'1313.4
2016-Feb-04 01:33N 39°34' W 027°36'1 0.9
2016-Feb-04 00:33N 39°34' W 027°35'1 1.0
2016-Feb-03 23:33N 39°33' W 027°34'0 0.3
2016-Feb-03 22:33N 39°33' W 027°33'7 6.7
2016-Feb-03 21:33N 39°34' W 027°42'1513.1
2016-Feb-03 20:26N 39°37' W 028°00'1112.6
2016-Feb-03 19:33N 39°40' W 028°14'1 1.2
2016-Feb-03 18:33N 39°41' W 028°15'1212.4
2016-Feb-03 17:33N 39°43' W 028°31'1312.9
2016-Feb-03 16:33N 39°47' W 028°47'1312.7
2016-Feb-03 15:34N 39°50' W 029°03'1312.7
2016-Feb-03 14:33N 39°53' W 029°19'1312.6
2016-Feb-03 13:32N 39°55' W 029°35'5712.8
2016-Feb-03 09:07N 40°09' W 030°47'812.2
2016-Feb-03 08:27N 40°12' W 030°57'  
Track history (hours):
 
Tides and Currents Weather Stations Pressure Air Temp Water Temp Dewpoint Dewpoint Depression Visibility Wind Speed Wind Dir Waves Ship Positions

MSC Gina

Last reported at 2016-Feb-07 05:34 UTC. Time now 2016-Feb-09 03:19 UTC.
Position N 35°60' W 005°05'.

Length 259 m; draft 9.8 m.

Type: Ship (hazmat cat A). MMSI: 357542000.

Date/timePositionNaut miles runAvg speedWind from/ knotsBaromVisibWave heightAir tempDewpointWater temp
2016-Feb-07 05:34N 35°60' W 005°05'1716.8
2016-Feb-07 04:34N 35°57' W 005°26'1817.4
2016-Feb-07 03:30N 35°54' W 005°48'1516.0
2016-Feb-07 02:34N 35°53' W 006°07'11714.1
2016-Feb-06 18:15N 36°00' W 008°32'1115.1
2016-Feb-06 17:33N 36°02' W 008°44'1313.1
2016-Feb-06 16:33N 36°05' W 009°00'1514.6
2016-Feb-06 15:30N 36°09' W 009°18'1414.2
2016-Feb-06 14:30N 36°13' W 009°35'1313.8
2016-Feb-06 13:33N 36°16' W 009°51'1614.3
2016-Feb-06 12:27N 36°19' W 010°10'1213.7
2016-Feb-06 11:33N 36°22' W 010°25'1514.3
2016-Feb-06 10:30N 36°25' W 010°44'71114.0
2016-Feb-04 07:33N 39°09' W 025°19'4719.0
2016-Feb-04 05:04N 39°20' W 026°19'1019.4
2016-Feb-04 04:33N 39°22' W 026°31'1919.0
2016-Feb-04 03:33N 39°26' W 026°55'1919.1
2016-Feb-04 02:34N 39°31' W 027°19'1313.4
2016-Feb-04 01:33N 39°34' W 027°36'1 0.9
2016-Feb-04 00:33N 39°34' W 027°35'1 1.0
2016-Feb-03 23:33N 39°33' W 027°34'0 0.3
2016-Feb-03 22:33N 39°33' W 027°33'7 6.7
2016-Feb-03 21:33N 39°34' W 027°42'1513.1
2016-Feb-03 20:26N 39°37' W 028°00'1112.6
2016-Feb-03 19:33N 39°40' W 028°14'1 1.2
2016-Feb-03 18:33N 39°41' W 028°15'1212.4
2016-Feb-03 17:33N 39°43' W 028°31'1312.9
2016-Feb-03 16:33N 39°47' W 028°47'1312.7
2016-Feb-03 15:34N 39°50' W 029°03'1312.7
2016-Feb-03 14:33N 39°53' W 029°19'1312.6
2016-Feb-03 13:32N 39°55' W 029°35'5712.8
2016-Feb-03 09:07N 40°09' W 030°47'812.2
2016-Feb-03 08:27N 40°12' W 030°57'  

Dump ship's entire track history